world map with OOM marked

OOM - Airport

This information may not be accurate or current and is not valid for navigation or flight planning. No warranty of fitness for any purpose is made or implied.

flag of New South Walesflag of Australia

Donate via PayPal

Additional information is available on the NEW Great Circle Mapper

Location
City:  Cooma, New South Wales, Australia
Name:Cooma-Snowy Mountains Airport
ICAO / IATA:YCOM / OOM

Details
Type:Airport (Aerodrome, Airfield)
Latitude:36°18'02"S (-36.300555)
Longitude:148°58'26"E (148.973889)
Datum:WGS 1984
Elevation:3088 ft (941 m)
Runways:2
Longest:6955 × 148 ft (2120 × 45 m)

Time
Timezone:UTC+10 (DST+13)
Local Time:

Weather
METAR:YCOM  201000Z AUTO 03007KT 9999 // NCD 19/16 Q1022

Related Locations
Nearby:
Farthest:HOR: 12236 mi / 19692 km
Horta (Faial Island), 20, PT

Find:

   beyond  
but within

Other Information
Maps:
Links:
Sources:

  


 


Great Circle Mapper   Great Circle Mapper
Great Circle Mapper FAQ   Great Circle Mapper FAQ
  Karl's Home Page
KLSē   KLSē Home
   GC on Facebook
Airlines of the World   Airlines of the World
Donate via PayPal


Copyright © 2004-2019, Karl L. Swartz. All rights reserved.
All trademarks mentioned herein belong to their respective owners.

Please see credits for attribution and copyright information.

Karl Swartz <karl@kls2.com>
  Powered by FreeBSD
Valid HTML 4.01!
Labeled with ICRA
hCard Microformat
Geo Microformat